Time;durP1;ratioP1;P1;durP2;ratioP2;P2;SDS_P1;SDS_P2;PMS_P1;PMS_P2;Temp;Humidity;BMP_temperature;BMP_pressure;BME280_temperature;BME280_humidity;BME280_pressure;Samples;Min_cycle;Max_cycle;Signal;HPM_P1;HPM_P2
2022/02/10 00:14:59;;;;;;;6.32;2.00;;;;;;;18.93;51.84;102058.50;5012874;28;20052;-68
2022/02/10 00:22:57;;;;;;;7.05;2.60;;;;;;;18.90;51.71;102053.41;5014410;28;20577;-67
2022/02/10 00:26:15;;;;;;;5.35;2.10;;;;;;;18.87;51.85;102048.31;5013161;28;20026;-67
2022/02/10 00:36:29;;;;;;;5.25;2.17;;;;;;;18.81;51.90;102034.53;5012517;28;20060;-67
2022/02/10 00:41:46;;;;;;;4.72;2.22;;;;;;;18.79;51.53;102030.34;5021655;28;20049;-68
2022/02/10 00:44:11;;;;;;;5.33;2.10;;;;;;;18.77;51.66;102024.28;5012667;28;20045;-67
2022/02/10 00:46:36;;;;;;;5.27;1.90;;;;;;;18.77;51.88;102025.16;5013639;28;20340;-67
2022/02/10 00:49:02;;;;;;;5.07;2.23;;;;;;;18.75;51.70;102027.03;5013530;28;20834;-68
2022/02/10 00:51:27;;;;;;;6.77;2.17;;;;;;;18.74;51.53;102020.06;5012200;28;20302;-68
2022/02/10 00:53:52;;;;;;;6.67;2.20;;;;;;;18.73;51.53;102010.44;5013156;28;20278;-68
2022/02/10 00:56:18;;;;;;;5.80;2.10;;;;;;;18.72;51.62;102005.25;5012441;28;20311;-68
2022/02/10 00:58:46;;;;;;;6.25;2.40;;;;;;;18.70;51.78;102005.34;5012765;28;20287;-68
2022/02/10 01:31:14;;;;;;;6.40;3.15;;;;;;;18.57;51.47;101963.06;5012899;28;20536;-68
2022/02/10 01:33:41;;;;;;;5.60;2.30;;;;;;;18.57;51.64;101956.94;5011851;28;20029;-69
2022/02/10 01:36:09;;;;;;;7.65;2.78;;;;;;;18.55;51.76;101950.91;5012361;28;20394;-69
2022/02/10 01:38:35;;;;;;;6.65;2.83;;;;;;;18.55;51.35;101950.91;5011839;28;20029;-68
2022/02/10 02:05:44;;;;;;;6.70;2.78;;;;;;;18.45;51.39;101882.03;5013641;28;20041;-69
2022/02/10 02:08:10;;;;;;;7.78;3.00;;;;;;;18.44;51.54;101868.00;5012219;28;20109;-67
2022/02/10 02:10:35;;;;;;;7.53;2.70;;;;;;;18.42;51.68;101880.47;5012661;28;20285;-67
2022/02/10 02:13:02;;;;;;;6.50;2.80;;;;;;;18.42;51.54;101874.31;5012844;28;20033;-67
2022/02/10 02:15:28;;;;;;;7.00;3.22;;;;;;;18.39;51.55;101878.03;5011723;28;20045;-68
2022/02/10 02:17:53;;;;;;;5.78;2.63;;;;;;;18.39;51.48;101878.03;5012692;28;20022;-67
2022/02/10 02:20:18;;;;;;;6.50;3.13;;;;;;;18.39;51.20;101879.81;5012630;28;20486;-67
2022/02/10 02:22:44;;;;;;;5.68;2.80;;;;;;;18.38;51.66;101872.84;5012412;28;20295;-67
2022/02/10 02:25:09;;;;;;;5.73;2.97;;;;;;;18.36;51.57;101875.59;5017330;28;20037;-68
2022/02/10 02:27:53;;;;;;;5.30;2.70;;;;;;;18.35;51.41;101878.34;5019191;28;20277;-67
2022/02/10 02:30:23;;;;;;;5.57;2.70;;;;;;;18.35;51.44;101876.53;5021286;28;20034;-67
2022/02/10 02:33:14;;;;;;;6.22;2.72;;;;;;;18.34;51.60;101868.72;5022801;28;20033;-67
2022/02/10 02:35:54;;;;;;;5.53;2.75;;;;;;;18.31;51.55;101867.97;5021712;28;20037;-68
2022/02/10 03:08:38;;;;;;;8.02;3.17;;;;;;;18.23;51.49;101853.56;5014804;28;20080;-67
2022/02/10 03:11:10;;;;;;;7.13;2.83;;;;;;;18.22;51.51;101851.91;5014826;28;20029;-68
2022/02/10 03:13:40;;;;;;;8.30;3.17;;;;;;;18.22;51.53;101844.81;5015014;28;20052;-67
2022/02/10 03:18:56;;;;;;;5.63;2.80;;;;;;;18.20;51.35;101848.50;5014462;28;20474;-67
2022/02/10 04:12:56;;;;;;;10.05;3.92;;;;;;;18.05;51.31;101837.16;5014342;28;20263;-68
2022/02/10 04:15:36;;;;;;;9.55;4.18;;;;;;;18.10;51.57;101838.56;5012931;28;20030;-67
2022/02/10 04:18:55;;;;;;;9.30;4.50;;;;;;;18.12;51.15;101839.31;5014052;28;20026;-67
2022/02/10 04:26:29;;;;;;;10.75;4.43;;;;;;;18.19;51.38;101838.91;5013470;28;20285;-67
2022/02/10 04:29:25;;;;;;;6.95;3.75;;;;;;;18.19;51.32;101834.47;5012762;28;20045;-68
2022/02/10 04:37:41;;;;;;;9.43;4.00;;;;;;;18.21;50.90;101822.00;5013243;28;20061;-67
2022/02/10 04:43:19;;;;;;;7.65;3.90;;;;;;;18.22;50.99;101810.53;5015609;28;20053;-67
2022/02/10 04:59:36;;;;;;;9.37;4.20;;;;;;;18.22;50.70;101815.81;5013141;28;20056;-68
2022/02/10 05:02:29;;;;;;;8.45;4.10;;;;;;;18.22;50.63;101810.53;5013003;28;20026;-68
2022/02/10 05:16:22;;;;;;;9.50;4.55;;;;;;;18.26;50.92;101801.47;5010778;28;20033;-68
2022/02/10 05:21:25;;;;;;;9.38;4.68;;;;;;;18.27;50.93;101805.78;5010595;28;20498;-68
2022/02/10 05:24:12;;;;;;;8.82;4.55;;;;;;;18.27;50.85;101807.59;5010569;28;20563;-68
2022/02/10 05:35:01;;;;;;;8.40;5.30;;;;;;;18.28;50.53;101790.81;5012808;28;20037;-68
2022/02/10 05:37:31;;;;;;;9.60;4.95;;;;;;;18.28;50.49;101790.81;5012324;28;20088;-68
2022/02/10 05:39:59;;;;;;;11.35;4.70;;;;;;;18.28;50.81;101783.72;5011669;28;20446;-68
2022/02/10 05:42:53;;;;;;;8.60;4.50;;;;;;;18.28;50.37;101780.25;5012401;28;20046;-68
2022/02/10 05:45:27;;;;;;;9.02;4.55;;;;;;;18.27;50.35;101776.75;5011324;28;20057;-67
2022/02/10 05:48:35;;;;;;;8.43;4.85;;;;;;;18.27;50.50;101778.56;5012523;28;20525;-67
2022/02/10 05:55:50;;;;;;;8.38;4.55;;;;;;;18.26;50.17;101776.84;5012484;28;20101;-67
2022/02/10 06:01:48;;;;;;;8.73;5.00;;;;;;;18.24;50.82;101771.69;5011925;28;20121;-67
2022/02/10 06:46:58;;;;;;;7.85;4.40;;;;;;;18.52;52.61;101812.06;5019183;28;20050;-68
2022/02/10 06:50:59;;;;;;;8.00;3.90;;;;;;;18.54;52.86;101817.25;5014975;28;20029;-68
2022/02/10 06:53:36;;;;;;;10.32;4.10;;;;;;;18.59;52.92;101820.41;5014752;28;20512;-68
2022/02/10 07:02:47;;;;;;;8.77;4.38;;;;;;;18.62;50.90;101814.91;5015350;28;20026;-68
2022/02/10 07:04:41;;;;;;;6.20;3.63;;;;;;;18.67;51.52;101818.94;5017714;28;20434;-70
2022/02/10 07:15:26;;;;;;;7.27;3.47;;;;;;;18.85;51.63;101826.59;5015212;28;20520;-67
2022/02/10 07:48:22;;;;;;;8.65;4.93;;;;;;;18.95;51.42;101832.09;5014872;28;20113;-70
2022/02/10 07:53:33;;;;;;;10.40;4.78;;;;;;;18.99;51.52;101839.69;5013889;28;20038;-69
2022/02/10 07:56:22;;;;;;;9.57;4.45;;;;;;;19.00;51.91;101838.72;5014572;28;20042;-69
2022/02/10 07:59:18;;;;;;;7.18;3.97;;;;;;;19.05;51.89;101838.41;5013801;28;20030;-69
2022/02/10 09:06:57;;;;;;;12.90;7.20;;;;;;;19.42;51.20;101901.91;5013118;28;20493;-70
2022/02/10 09:20:20;;;;;;;10.77;5.93;;;;;;;19.63;50.87;101919.84;5013257;28;20646;-71
2022/02/10 09:23:43;;;;;;;11.23;5.78;;;;;;;19.68;50.97;101923.88;5012426;28;20038;-71
2022/02/10 09:51:51;;;;;;;10.57;5.35;;;;;;;19.74;50.98;101951.66;5012656;28;20080;-72
2022/02/10 09:56:19;;;;;;;7.95;4.82;;;;;;;19.67;51.10;101948.63;5017827;28;20099;-69
2022/02/10 09:59:05;;;;;;;9.52;4.85;;;;;;;19.68;51.26;101952.97;5016400;28;20030;-70
2022/02/10 10:01:36;;;;;;;10.13;5.15;;;;;;;19.62;51.49;101958.69;5016466;28;20034;-68
2022/02/10 10:04:18;;;;;;;11.75;5.07;;;;;;;19.55;51.40;101955.63;5016591;28;20044;-69
2022/02/10 10:07:06;;;;;;;8.13;4.57;;;;;;;19.51;51.42;101964.72;5015921;28;20038;-68
2022/02/10 10:23:43;;;;;;;10.20;4.07;;;;;;;19.75;51.80;101978.00;5016838;28;20057;-69
2022/02/10 10:56:08;;;;;;;8.20;3.30;;;;;;;19.49;52.01;102000.16;5017406;28;20366;-71
2022/02/10 10:58:48;;;;;;;8.45;3.10;;;;;;;19.46;52.09;102003.84;5016412;28;20468;-71
2022/02/10 11:36:24;;;;;;;11.73;5.80;;;;;;;19.31;53.36;102004.88;5019566;28;20124;-70
2022/02/10 11:38:09;;;;;;;10.90;6.00;;;;;;;19.24;53.25;102007.09;5015351;28;20036;-73
2022/02/10 11:40:54;;;;;;;9.20;6.40;;;;;;;19.24;53.25;102009.75;5015009;28;20096;-70
2022/02/10 12:43:35;;;;;;;8.85;4.07;;;;;;;19.18;54.11;102011.03;5130819;27;20035;-66
2022/02/10 14:14:32;;;;;;;7.32;2.05;;;;;;;19.28;52.67;101976.00;5115148;28;20088;-67
2022/02/10 14:17:04;;;;;;;8.25;2.55;;;;;;;19.26;52.70;101986.69;5115630;28;20023;-67
2022/02/10 14:19:58;;;;;;;6.50;1.90;;;;;;;19.26;53.08;101981.41;5113957;28;20031;-64
2022/02/10 14:22:37;;;;;;;6.68;1.92;;;;;;;19.26;52.97;101985.84;5115077;28;20028;-66
2022/02/10 14:27:48;;;;;;;10.32;1.75;;;;;;;19.21;51.45;101991.44;5115621;28;20116;-67
2022/02/10 14:30:14;;;;;;;9.05;2.08;;;;;;;19.18;51.03;101991.66;5114838;28;20051;-66
2022/02/10 14:32:43;;;;;;;5.63;1.77;;;;;;;19.16;51.89;102002.34;5114272;28;20027;-67
2022/02/10 14:35:29;;;;;;;8.27;2.00;;;;;;;19.15;52.73;102000.66;5114779;28;20096;-65
2022/02/10 14:38:15;;;;;;;6.38;1.90;;;;;;;19.15;52.65;102002.44;5114959;28;20024;-66
2022/02/10 15:31:14;;;;;;;5.68;1.60;;;;;;;19.13;52.40;102007.81;5083986;28;20046;-66
2022/02/10 15:48:55;;;;;;;8.88;1.50;;;;;;;19.12;51.93;102002.63;5113512;28;20114;-66
2022/02/10 16:10:46;;;;;;;6.07;1.67;;;;;;;19.11;51.13;102006.25;5113137;28;20402;-66
2022/02/10 16:10:52;;;;;;;5.72;1.50;;;;;;;19.10;52.14;102005.38;5112953;28;20071;-66
2022/02/10 16:18:45;;;;;;;6.50;1.65;;;;;;;19.11;51.91;102012.38;5112579;28;20054;-66
2022/02/10 16:21:12;;;;;;;6.32;1.58;;;;;;;19.13;52.12;102017.56;5113055;28;20110;-66
2022/02/10 16:23:38;;;;;;;7.43;1.60;;;;;;;19.12;52.21;102014.06;5113272;28;20034;-65
2022/02/10 16:26:13;;;;;;;7.88;1.80;;;;;;;19.12;52.45;102019.34;5112629;28;20031;-65
2022/02/10 16:28:41;;;;;;;4.95;1.48;;;;;;;19.13;52.30;102017.56;5113213;28;20081;-68
2022/02/10 16:31:14;;;;;;;5.40;1.65;;;;;;;19.13;52.09;102013.09;5113016;28;20053;-67
2022/02/10 16:33:43;;;;;;;6.93;1.70;;;;;;;19.14;52.30;102013.97;5112201;28;20495;-67
2022/02/10 16:36:16;;;;;;;11.30;1.70;;;;;;;19.13;51.96;102013.09;5112666;28;20044;-67
2022/02/10 16:38:42;;;;;;;7.57;1.70;;;;;;;19.15;51.93;102023.56;5112577;28;20031;-65
2022/02/10 16:41:07;;;;;;;5.53;1.80;;;;;;;19.13;51.70;102021.03;5111890;28;20038;-65
2022/02/10 16:43:32;;;;;;;9.20;1.70;;;;;;;19.13;52.11;102026.31;5112837;28;20020;-66
2022/02/10 16:45:59;;;;;;;7.33;1.87;;;;;;;19.14;51.88;102019.25;5112021;28;20032;-65
2022/02/10 16:48:27;;;;;;;7.85;1.70;;;;;;;19.11;52.19;102019.47;5112437;28;20039;-65
2022/02/10 16:50:58;;;;;;;7.03;1.75;;;;;;;19.15;52.03;102026.22;5112686;28;20028;-65
2022/02/10 16:53:25;;;;;;;8.25;1.60;;;;;;;19.15;52.03;102027.09;5111505;28;20126;-64
2022/02/10 16:56:05;;;;;;;9.15;1.77;;;;;;;19.15;51.96;102021.81;5112980;28;20087;-65
2022/02/10 17:27:43;;;;;;;6.38;2.20;;;;;;;19.18;51.06;102003.09;5116408;28;20252;-64
2022/02/10 17:36:12;;;;;;;13.03;3.40;;;;;;;19.21;51.52;102012.59;5115166;28;20166;-64
2022/02/10 17:46:53;;;;;;;7.28;3.30;;;;;;;19.27;51.34;102024.56;5115897;28;20058;-63
2022/02/10 17:54:48;;;;;;;8.77;3.40;;;;;;;19.32;51.31;102028.56;5106480;28;20093;-63
2022/02/10 17:57:14;;;;;;;7.68;2.75;;;;;;;19.34;51.47;102028.47;5114727;28;20028;-63
2022/02/10 17:59:40;;;;;;;6.57;2.63;;;;;;;19.36;51.39;102034.53;5115852;28;20159;-63
2022/02/10 18:02:05;;;;;;;7.43;2.50;;;;;;;19.37;51.48;102036.19;5116017;28;20060;-63
2022/02/10 18:04:31;;;;;;;7.97;2.72;;;;;;;19.37;51.41;102044.97;5114647;28;20038;-63
2022/02/10 18:06:58;;;;;;;7.18;2.83;;;;;;;19.40;51.27;102054.50;5115698;28;20107;-63
2022/02/10 18:14:48;;;;;;;6.57;2.20;;;;;;;19.43;51.84;102071.94;5115511;28;20076;-63
2022/02/10 18:17:28;;;;;;;6.32;2.00;;;;;;;19.45;51.59;102075.31;5114952;28;20093;-63
2022/02/10 18:20:07;;;;;;;7.25;2.10;;;;;;;19.45;51.52;102080.63;5115128;28;20055;-63
2022/02/10 18:22:57;;;;;;;6.10;1.80;;;;;;;19.44;51.75;102074.50;5115392;28;20102;-63
2022/02/10 18:30:37;;;;;;;6.25;1.70;;;;;;;19.47;51.55;102070.78;5114880;28;20031;-62
2022/02/10 19:08:11;;;;;;;4.75;1.10;;;;;;;19.55;51.93;102100.19;5113618;28;20481;-62
2022/02/10 19:10:43;;;;;;;7.47;1.63;;;;;;;19.55;52.08;102103.69;5114081;28;20034;-62
2022/02/10 19:13:09;;;;;;;8.27;1.70;;;;;;;19.55;52.11;102102.81;5114162;28;20102;-62
2022/02/10 19:15:35;;;;;;;8.80;1.80;;;;;;;19.57;51.85;102109.72;5113377;28;20515;-63
2022/02/10 19:18:03;;;;;;;6.10;1.30;;;;;;;19.54;51.89;102103.78;5114155;28;20531;-62
2022/02/10 19:20:28;;;;;;;6.93;1.45;;;;;;;19.60;51.94;102110.44;5113822;28;20284;-63
2022/02/10 19:22:54;;;;;;;5.47;1.10;;;;;;;19.58;51.80;102106.13;5112998;28;20035;-63
2022/02/10 19:25:20;;;;;;;5.22;1.45;;;;;;;19.61;51.85;102109.50;5113769;28;20069;-63
2022/02/10 19:27:49;;;;;;;6.10;1.42;;;;;;;19.60;51.87;102108.66;5113272;28;20028;-63
2022/02/10 19:30:17;;;;;;;6.35;1.52;;;;;;;19.61;51.89;102101.56;5113704;28;20019;-63
2022/02/10 19:32:54;;;;;;;5.80;1.30;;;;;;;19.61;51.78;102101.56;5113796;28;20065;-63
2022/02/10 19:35:22;;;;;;;6.03;1.45;;;;;;;19.62;52.17;102100.63;5112732;28;20020;-63
2022/02/10 19:37:54;;;;;;;6.43;1.50;;;;;;;19.61;51.89;102098.94;5113760;28;20032;-64
2022/02/10 19:40:19;;;;;;;5.05;1.38;;;;;;;19.61;51.87;102096.28;5112924;28;20120;-63
2022/02/10 19:42:47;;;;;;;5.25;1.30;;;;;;;19.61;51.99;102094.47;5113103;28;20348;-62
2022/02/10 19:45:13;;;;;;;4.45;1.10;;;;;;;19.62;51.72;102098.00;5113309;28;20047;-63
2022/02/10 19:47:38;;;;;;;5.68;1.38;;;;;;;19.63;51.77;102104.97;5113081;28;20167;-63
2022/02/10 19:50:13;;;;;;;5.90;1.58;;;;;;;19.61;51.55;102099.78;5112897;27;20078;-63
2022/02/10 19:52:42;;;;;;;5.40;1.20;;;;;;;19.62;51.85;102104.13;5113788;28;20098;-65
2022/02/10 19:55:16;;;;;;;5.20;1.30;;;;;;;19.62;51.63;102106.75;5113148;28;20019;-63
2022/02/10 19:57:44;;;;;;;6.40;1.55;;;;;;;19.62;52.05;102104.13;5112747;28;20016;-62
2022/02/10 20:00:17;;;;;;;9.23;1.45;;;;;;;19.63;52.19;102108.47;5112858;28;20155;-62
2022/02/10 20:02:42;;;;;;;5.95;1.27;;;;;;;19.61;50.31;102102.41;5113485;28;20054;-62
2022/02/10 20:05:07;;;;;;;8.23;1.48;;;;;;;19.58;51.65;102111.41;5112233;28;20459;-61
2022/02/10 20:07:38;;;;;;;8.20;1.67;;;;;;;19.58;51.86;102098.19;5113470;28;20026;-63
2022/02/10 20:10:05;;;;;;;5.82;1.40;;;;;;;19.57;51.84;102104.44;5112664;28;20035;-62
2022/02/10 20:12:30;;;;;;;5.95;1.63;;;;;;;19.55;51.81;102106.34;5112846;28;20028;-62
2022/02/10 20:14:56;;;;;;;6.15;1.73;;;;;;;19.55;52.17;102101.06;5113228;28;20042;-63
2022/02/10 20:17:21;;;;;;;5.25;1.30;;;;;;;19.56;52.35;102104.53;5112192;28;20063;-62
2022/02/10 20:19:47;;;;;;;7.50;1.50;;;;;;;19.55;52.42;102106.34;5113140;28;20085;-62
2022/02/10 20:22:13;;;;;;;6.53;1.52;;;;;;;19.55;52.65;102094.91;5112884;28;20023;-62
2022/02/10 20:24:42;;;;;;;7.80;1.50;;;;;;;19.54;52.60;102096.69;5112464;28;20019;-63
2022/02/10 20:27:07;;;;;;;6.78;1.45;;;;;;;19.52;52.60;102106.53;5112860;28;20030;-63
2022/02/10 20:29:38;;;;;;;7.80;1.83;;;;;;;19.52;51.96;102106.53;5112649;28;20375;-62
2022/02/10 20:32:04;;;;;;;8.32;2.20;;;;;;;19.52;52.32;102108.34;5112382;28;20024;-62
2022/02/10 20:34:31;;;;;;;7.50;1.52;;;;;;;19.51;52.49;102110.13;5112785;28;20081;-62
2022/02/10 20:36:59;;;;;;;11.50;2.53;;;;;;;19.52;52.65;102117.13;5113071;28;20395;-62
2022/02/10 20:39:29;;;;;;;11.02;1.95;;;;;;;19.52;52.82;102119.75;5111735;28;20055;-62
2022/02/10 20:42:04;;;;;;;10.02;2.30;;;;;;;19.51;52.60;102115.41;5112967;28;20043;-62
2022/02/10 20:44:30;;;;;;;8.23;1.73;;;;;;;19.50;52.18;102107.59;5112804;28;20024;-63
2022/02/10 20:46:55;;;;;;;7.32;1.65;;;;;;;19.52;52.00;102116.28;5112081;28;20505;-62
2022/02/10 20:49:26;;;;;;;7.13;2.13;;;;;;;19.52;52.06;102118.94;5112597;28;20036;-63
2022/02/10 20:51:56;;;;;;;7.75;1.90;;;;;;;19.54;52.32;102120.50;5112878;28;20035;-63
2022/02/10 20:54:23;;;;;;;9.43;2.42;;;;;;;19.52;52.48;102126.84;5111688;28;20028;-63
2022/02/10 20:56:48;;;;;;;8.40;2.70;;;;;;;19.54;52.95;102128.44;5113064;28;20081;-62
2022/02/10 21:02:07;;;;;;;9.82;2.55;;;;;;;19.55;52.98;102126.63;5116967;27;20039;-61
2022/02/10 21:04:37;;;;;;;8.48;2.20;;;;;;;19.55;52.68;102130.13;5116566;28;20047;-62
2022/02/10 21:07:21;;;;;;;9.57;2.22;;;;;;;19.54;52.52;102109.91;5115940;28;20123;-62
2022/02/10 21:12:13;;;;;;;11.07;2.50;;;;;;;19.52;51.89;102116.28;5116136;28;20382;-61
2022/02/10 21:14:39;;;;;;;9.77;2.70;;;;;;;19.52;52.65;102113.63;5115641;28;20358;-61
2022/02/10 21:17:08;;;;;;;10.50;3.05;;;;;;;19.50;53.01;102116.38;5116361;28;20065;-62
2022/02/10 21:19:35;;;;;;;7.80;2.22;;;;;;;19.53;53.40;102117.94;5116124;28;20540;-61
2022/02/10 21:22:07;;;;;;;9.65;2.55;;;;;;;19.52;53.14;102111.84;5115709;28;20072;-62
2022/02/10 21:24:35;;;;;;;9.23;2.63;;;;;;;19.52;52.82;102113.63;5116192;28;20378;-62
2022/02/10 21:27:27;;;;;;;8.25;2.10;;;;;;;19.53;52.80;102112.66;5116223;28;20022;-62
2022/02/10 21:29:57;;;;;;;9.68;2.17;;;;;;;19.50;52.49;102124.31;5116272;28;20044;-61
2022/02/10 21:32:23;;;;;;;8.15;2.00;;;;;;;19.50;52.29;102124.31;5115834;28;20050;-63
2022/02/10 21:35:06;;;;;;;9.55;2.30;;;;;;;19.48;52.17;102126.19;5115500;28;20111;-63
2022/02/10 21:37:31;;;;;;;9.23;2.00;;;;;;;19.49;52.66;102121.78;5116068;28;20034;-62
2022/02/10 21:40:29;;;;;;;7.60;2.20;;;;;;;19.48;52.69;102122.72;5115877;28;20040;-62
2022/02/10 22:09:53;;;;;;;6.22;1.83;;;;;;;19.45;51.42;102139.63;5120840;28;20358;-63
2022/02/10 22:20:44;;;;;;;6.13;1.92;;;;;;;19.41;50.47;102146.06;5115833;28;20050;-62
2022/02/10 22:23:17;;;;;;;6.78;1.95;;;;;;;19.37;50.55;102134.84;5115220;28;20027;-64
2022/02/10 22:25:43;;;;;;;7.35;1.90;;;;;;;19.43;49.90;102143.31;5114629;28;20034;-62
2022/02/10 22:28:36;;;;;;;7.78;2.10;;;;;;;19.50;49.79;102148.13;5115017;28;20019;-64
2022/02/10 22:31:20;;;;;;;7.03;2.22;;;;;;;19.58;49.44;102140.50;5114220;28;20539;-64
2022/02/10 22:36:14;;;;;;;8.38;2.03;;;;;;;19.69;48.68;102145.09;5114799;28;20425;-66
2022/02/10 22:38:39;;;;;;;18.13;2.20;;;;;;;19.74;48.27;102137.69;5113826;28;20447;-64
2022/02/10 22:41:12;;;;;;;6.18;1.80;;;;;;;19.77;48.11;102134.00;5115158;28;20031;-67
2022/02/10 22:43:42;;;;;;;6.22;1.88;;;;;;;19.80;47.79;102135.59;5115094;27;20027;-66
2022/02/10 22:46:12;;;;;;;5.60;1.83;;;;;;;19.75;48.08;102131.41;5113895;28;20024;-63
2022/02/10 22:48:38;;;;;;;6.90;1.73;;;;;;;19.72;47.99;102131.63;5114862;28;20118;-62
2022/02/10 22:51:04;;;;;;;5.07;1.80;;;;;;;19.65;47.62;102140.94;5114737;28;20067;-64
2022/02/10 22:53:29;;;;;;;5.22;1.95;;;;;;;19.58;47.90;102137.88;5113252;28;20028;-63
2022/02/10 22:55:55;;;;;;;5.83;2.10;;;;;;;19.52;47.78;102142.72;5114865;28;20082;-64
2022/02/10 22:58:21;;;;;;;6.35;1.80;;;;;;;19.47;47.53;102135.09;5114258;28;20275;-64
2022/02/10 23:00:47;;;;;;;5.63;2.00;;;;;;;19.43;47.48;102136.25;5113995;28;20036;-63
2022/02/10 23:03:20;;;;;;;6.82;1.75;;;;;;;19.35;47.48;102141.19;5114371;28;20028;-63
2022/02/10 23:05:49;;;;;;;4.97;1.50;;;;;;;19.31;47.29;102137.91;5113784;28;20035;-63
2022/02/10 23:08:15;;;;;;;5.82;1.73;;;;;;;19.29;47.08;102139.78;5114096;28;20494;-63
2022/02/10 23:10:47;;;;;;;5.47;1.90;;;;;;;19.24;47.24;102141.88;5114310;28;20498;-63
2022/02/10 23:13:22;;;;;;;6.47;1.80;;;;;;;19.21;47.15;102148.22;5113348;28;20153;-64
2022/02/10 23:15:50;;;;;;;7.22;2.00;;;;;;;19.17;47.31;102144.09;5114496;28;20093;-64
2022/02/10 23:18:26;;;;;;;6.32;2.22;;;;;;;19.15;47.19;102145.13;5113789;28;20050;-63
2022/02/10 23:20:53;;;;;;;5.88;2.00;;;;;;;19.10;47.26;102150.72;5113421;28;20488;-64
2022/02/10 23:23:21;;;;;;;7.25;1.98;;;;;;;19.08;46.97;102152.63;5113355;28;20027;-64
2022/02/10 23:25:48;;;;;;;5.38;1.67;;;;;;;19.02;47.00;102148.56;5114058;28;20102;-63
2022/02/10 23:28:17;;;;;;;5.28;1.83;;;;;;;19.02;47.17;102158.28;5113049;28;20032;-64
2022/02/10 23:30:46;;;;;;;6.45;1.92;;;;;;;19.00;47.10;102160.19;5113732;27;20051;-64
2022/02/10 23:33:20;;;;;;;6.68;2.00;;;;;;;18.97;46.74;102155.09;5113680;28;20475;-64
2022/02/10 23:38:24;;;;;;;4.72;1.67;;;;;;;18.93;46.86;102164.16;5113397;28;20114;-63
2022/02/10 23:43:27;;;;;;;7.05;2.08;;;;;;;18.86;46.93;102158.41;5113684;28;20036;-64
2022/02/10 23:45:52;;;;;;;5.15;1.70;;;;;;;18.83;47.32;102158.59;5114047;28;20103;-63
2022/02/10 23:48:18;;;;;;;6.85;2.08;;;;;;;18.80;46.75;102159.66;5112819;28;20032;-64
2022/02/10 23:50:43;;;;;;;7.57;1.73;;;;;;;18.78;46.74;102158.03;5113554;28;20031;-63
2022/02/10 23:53:08;;;;;;;4.90;1.90;;;;;;;18.76;46.69;102163.41;5113405;28;20027;-63
2022/02/10 23:55:37;;;;;;;5.68;1.98;;;;;;;18.72;46.98;102161.91;5112764;28;20283;-63
